createdAt,value
2019-02-06T00:01:53.748Z,88.50
2019-02-06T00:04:21.175Z,88.40
2019-02-06T00:06:48.686Z,88.30
2019-02-06T00:09:17.879Z,88.80
2019-02-06T00:11:45.603Z,88.90
2019-02-06T00:14:13.359Z,89.20
2019-02-06T00:16:40.928Z,89.20
2019-02-06T00:19:08.543Z,89.40
2019-02-06T00:21:36.435Z,89.30
2019-02-06T00:24:04.378Z,88.80
2019-02-06T00:26:31.816Z,88.40
2019-02-06T00:28:59.329Z,88.50
2019-02-06T00:31:28.893Z,88.50
2019-02-06T00:33:56.258Z,88.30
2019-02-06T00:36:23.899Z,88.40
2019-02-06T00:38:51.707Z,88.70
2019-02-06T00:41:19.225Z,88.80
2019-02-06T00:43:46.728Z,88.50
2019-02-06T00:46:14.554Z,88.40
2019-02-06T00:48:42.019Z,88.60
2019-02-06T00:51:12.423Z,89.00
2019-02-06T00:53:39.867Z,88.80
2019-02-06T00:56:07.497Z,88.40
2019-02-06T00:58:34.967Z,88.70
2019-02-06T01:01:02.727Z,88.70
2019-02-06T01:03:30.281Z,88.50
2019-02-06T01:05:59.356Z,88.70
2019-02-06T01:08:26.801Z,88.90
2019-02-06T01:10:54.170Z,88.80
2019-02-06T01:13:22.164Z,88.70
2019-02-06T01:15:49.654Z,88.90
2019-02-06T01:18:17.000Z,88.90
2019-02-06T01:20:44.489Z,88.70
2019-02-06T01:23:12.240Z,88.60
2019-02-06T01:25:39.835Z,88.90
2019-02-06T01:28:08.233Z,88.70
2019-02-06T01:30:43.751Z,88.70
2019-02-06T01:33:11.495Z,88.70
2019-02-06T01:35:49.645Z,88.50
2019-02-06T01:38:08.524Z,88.60
2019-02-06T01:40:36.802Z,88.50
2019-02-06T01:43:04.393Z,88.90
2019-02-06T01:45:32.107Z,88.80
2019-02-06T01:47:59.555Z,89.00
2019-02-06T01:50:27.100Z,89.00
2019-02-06T01:52:54.629Z,88.90
2019-02-06T01:55:22.064Z,89.00
2019-02-06T01:57:49.527Z,89.40
2019-02-06T02:00:19.198Z,89.30
2019-02-06T02:02:46.735Z,89.10
2019-02-06T02:05:17.064Z,89.00
2019-02-06T02:07:45.147Z,89.30
2019-02-06T02:10:12.951Z,89.00
2019-02-06T02:12:40.511Z,89.10
2019-02-06T02:15:09.282Z,89.20
2019-02-06T04:37:52.760Z,89.30
2019-02-06T04:40:20.292Z,89.20
2019-02-06T04:42:48.315Z,88.80
2019-02-06T04:45:16.663Z,88.90
2019-02-06T04:47:44.390Z,89.20
2019-02-06T04:50:13.045Z,89.20
2019-02-06T04:52:40.471Z,89.30
2019-02-06T04:55:09.523Z,89.20
2019-02-06T04:57:37.031Z,89.40
2019-02-06T05:00:11.032Z,89.40
2019-02-06T05:02:38.635Z,89.20
2019-02-06T05:05:06.008Z,89.40
2019-02-06T05:07:33.502Z,89.40
2019-02-06T05:10:01.037Z,89.50
2019-02-06T05:12:28.623Z,89.60
2019-02-06T05:14:56.131Z,89.60
2019-02-06T05:17:23.893Z,89.70
2019-02-06T05:19:51.349Z,89.40
2019-02-06T05:22:18.848Z,89.30
2019-02-06T05:24:46.168Z,89.70
2019-02-06T05:27:14.953Z,89.50
2019-02-06T05:29:42.435Z,89.20
2019-02-06T05:32:11.034Z,89.00
2019-02-06T05:34:39.014Z,88.60
2019-02-06T05:37:06.531Z,88.80
2019-02-06T05:39:34.144Z,89.20
2019-02-06T05:42:02.145Z,89.00
2019-02-06T05:44:30.929Z,89.20
2019-02-06T05:46:58.472Z,88.90
2019-02-06T05:49:26.274Z,89.00
2019-02-06T05:51:54.167Z,88.80
2019-02-06T05:54:21.796Z,88.70
2019-02-06T05:56:49.313Z,88.70
2019-02-06T05:59:16.918Z,88.70
2019-02-06T06:01:44.893Z,88.70
2019-02-06T06:04:12.400Z,89.20
2019-02-06T06:06:40.311Z,89.10
2019-02-06T06:09:07.978Z,88.90
2019-02-06T06:11:35.917Z,89.00
2019-02-06T06:14:03.396Z,89.10
2019-02-06T06:16:31.112Z,89.10
2019-02-06T06:18:59.087Z,89.30
2019-02-06T06:21:26.761Z,88.80
2019-02-06T06:23:54.678Z,88.60
2019-02-06T06:26:22.479Z,88.70
2019-02-06T06:28:50.039Z,88.80
2019-02-06T06:31:17.677Z,88.50
2019-02-06T06:33:45.257Z,89.10
2019-02-06T06:36:13.329Z,89.10
2019-02-06T06:38:40.993Z,89.00
2019-02-06T06:41:08.480Z,89.10
2019-02-06T06:43:35.917Z,89.10
2019-02-06T06:46:03.433Z,88.80
2019-02-06T06:48:31.366Z,88.80
2019-02-06T06:50:58.849Z,89.10
2019-02-06T06:53:26.354Z,89.10
2019-02-06T06:55:53.927Z,89.30
2019-02-06T06:58:21.483Z,89.10
2019-02-06T07:00:48.995Z,89.00
2019-02-06T07:03:16.511Z,89.40
2019-02-06T07:05:44.439Z,89.10
2019-02-06T07:08:13.516Z,89.60
2019-02-06T07:10:42.514Z,89.40
2019-02-06T07:13:10.123Z,89.70
2019-02-06T07:15:38.035Z,89.40
2019-02-06T07:18:05.517Z,89.40
2019-02-06T07:20:33.007Z,89.40
2019-02-06T07:23:00.790Z,89.10
2019-02-06T07:25:28.375Z,89.30
2019-02-06T07:27:55.868Z,89.50
2019-02-06T07:30:28.612Z,89.40
2019-02-06T07:32:56.333Z,89.60
2019-02-06T07:35:23.855Z,89.80
2019-02-06T07:37:51.533Z,89.40
2019-02-06T07:40:20.081Z,89.40
2019-02-06T07:42:47.679Z,89.80
2019-02-06T07:45:15.625Z,90.00
2019-02-06T07:47:43.275Z,89.40
2019-02-06T07:50:14.037Z,89.30
2019-02-06T07:52:41.553Z,89.60
2019-02-06T07:55:09.721Z,89.80
2019-02-06T07:57:37.722Z,89.30
2019-02-06T08:00:06.580Z,89.10
2019-02-06T08:02:35.336Z,89.20
2019-02-06T08:05:04.138Z,89.20
2019-02-06T08:07:31.464Z,89.00
2019-02-06T08:09:58.956Z,88.80
2019-02-06T08:12:26.417Z,89.10
2019-02-06T08:14:53.777Z,88.80
2019-02-06T08:17:21.376Z,88.90
2019-02-06T08:19:48.865Z,89.10
2019-02-06T08:22:16.360Z,88.70
2019-02-06T08:24:43.932Z,88.70
2019-02-06T08:27:11.507Z,88.40
2019-02-06T08:29:39.091Z,88.10
2019-02-06T08:32:07.187Z,88.60
2019-02-06T08:34:34.727Z,88.30
2019-02-06T08:37:02.714Z,87.80
2019-02-06T08:39:30.074Z,87.80
2019-02-06T08:41:57.580Z,88.00
2019-02-06T08:44:25.170Z,88.00
2019-02-06T08:46:52.730Z,87.90
2019-02-06T08:49:20.774Z,87.80
2019-02-06T08:51:48.294Z,87.40
2019-02-06T08:54:16.006Z,87.40
2019-02-06T08:56:43.901Z,87.20
2019-02-06T08:59:11.383Z,87.50
2019-02-06T09:01:38.859Z,87.00
2019-02-06T09:04:06.440Z,86.60
2019-02-06T09:06:34.503Z,86.40
2019-02-06T09:09:03.995Z,85.90
2019-02-06T09:11:32.579Z,85.20
2019-02-06T09:14:00.084Z,84.30
2019-02-06T09:16:27.426Z,84.20
2019-02-06T09:18:54.780Z,83.50
2019-02-06T09:21:22.346Z,82.00
2019-02-06T09:23:50.180Z,81.10
2019-02-06T09:26:17.767Z,81.20
2019-02-06T09:28:45.182Z,80.60
2019-02-06T09:31:12.695Z,80.60
2019-02-06T09:33:40.197Z,81.00
2019-02-06T09:36:07.764Z,80.60
2019-02-06T09:38:35.249Z,78.70
2019-02-06T09:41:02.583Z,79.30
2019-02-06T09:43:30.396Z,78.20
2019-02-06T09:45:57.745Z,77.60
2019-02-06T09:48:25.103Z,76.50
2019-02-06T09:50:52.856Z,75.30
2019-02-06T09:53:20.361Z,75.00
2019-02-06T09:55:47.758Z,75.20
2019-02-06T09:58:15.276Z,75.50
2019-02-06T10:00:43.338Z,74.70
2019-02-06T10:03:10.803Z,74.40
2019-02-06T10:05:38.752Z,74.00
2019-02-06T10:08:06.443Z,73.30
2019-02-06T10:10:33.899Z,73.30
2019-02-06T10:13:01.819Z,73.90
2019-02-06T10:15:31.497Z,72.80
2019-02-06T10:18:00.734Z,72.10
2019-02-06T10:20:31.256Z,72.00
2019-02-06T10:22:58.981Z,72.60
2019-02-06T10:25:26.711Z,71.00
2019-02-06T10:27:54.276Z,71.20
2019-02-06T10:30:25.947Z,72.00
2019-02-06T10:32:53.391Z,71.60
2019-02-06T10:35:22.667Z,72.10
2019-02-06T10:37:50.029Z,71.90
2019-02-06T10:40:17.516Z,73.90
2019-02-06T10:42:45.075Z,74.20
2019-02-06T10:45:12.941Z,73.50
2019-02-06T10:47:40.652Z,73.80
2019-02-06T10:50:09.838Z,72.50
2019-02-06T10:52:37.335Z,69.80
2019-02-06T10:55:05.911Z,68.90
2019-02-06T10:57:33.466Z,69.40
2019-02-06T11:00:00.926Z,70.30
2019-02-06T11:02:28.890Z,69.90
2019-02-06T11:04:56.970Z,69.20
2019-02-06T11:07:24.413Z,67.90
2019-02-06T11:09:51.875Z,68.10
2019-02-06T11:12:19.759Z,66.90
2019-02-06T11:14:47.188Z,67.80
2019-02-06T11:17:14.718Z,69.00
2019-02-06T11:19:43.155Z,70.20
2019-02-06T11:22:10.885Z,71.10
2019-02-06T11:24:38.565Z,70.50
2019-02-06T11:27:08.019Z,70.50
2019-02-06T11:29:35.488Z,69.50
2019-02-06T11:32:03.149Z,66.10
2019-02-06T11:34:30.705Z,67.00
2019-02-06T11:36:58.060Z,66.70
2019-02-06T11:39:25.622Z,67.10
2019-02-06T11:41:53.112Z,66.60
2019-02-06T11:44:20.942Z,66.10
2019-02-06T11:46:48.818Z,64.80
2019-02-06T11:49:17.501Z,65.50
2019-02-06T11:51:44.924Z,65.00
2019-02-06T11:54:12.725Z,64.40
2019-02-06T11:56:40.205Z,63.80
2019-02-06T11:59:07.627Z,65.30
2019-02-06T12:01:39.807Z,64.20
2019-02-06T12:04:07.376Z,65.40
2019-02-06T12:06:34.903Z,66.80
2019-02-06T12:09:04.373Z,66.20
2019-02-06T12:11:33.744Z,67.10
2019-02-06T12:14:01.162Z,68.60
2019-02-06T12:16:29.172Z,67.00
2019-02-06T12:18:56.848Z,68.50
2019-02-06T12:21:24.287Z,68.10
2019-02-06T12:23:51.779Z,66.50
2019-02-06T12:26:20.170Z,65.20
2019-02-06T12:28:47.588Z,63.40
2019-02-06T12:31:15.157Z,64.50
2019-02-06T12:33:42.557Z,66.80
2019-02-06T12:36:10.425Z,69.30
2019-02-06T12:38:37.976Z,69.30
2019-02-06T12:41:05.475Z,67.70
2019-02-06T12:43:33.259Z,67.90
2019-02-06T12:46:00.707Z,68.70
2019-02-06T12:48:28.415Z,70.40
2019-02-06T12:50:55.874Z,70.20
2019-02-06T12:53:23.341Z,70.50
2019-02-06T12:55:50.932Z,69.80
2019-02-06T12:58:18.483Z,69.30
2019-02-06T13:00:46.190Z,69.60
2019-02-06T13:03:13.679Z,68.70
2019-02-06T13:05:41.190Z,69.00
2019-02-06T13:08:08.822Z,69.30
2019-02-06T13:10:36.449Z,68.90
2019-02-06T13:13:05.160Z,69.00
2019-02-06T13:15:33.118Z,69.00
2019-02-06T13:18:00.632Z,68.90
2019-02-06T13:20:28.637Z,68.80
2019-02-06T13:25:56.561Z,69.30
2019-02-06T13:28:24.086Z,68.30
2019-02-06T13:30:51.622Z,68.00
2019-02-06T13:33:20.133Z,68.40
2019-02-06T13:35:47.959Z,68.30
2019-02-06T13:38:15.292Z,68.20
2019-02-06T13:40:45.534Z,68.10
2019-02-06T13:43:12.197Z,68.20
2019-02-06T13:45:42.334Z,67.80
2019-02-06T13:48:09.842Z,67.10
2019-02-06T13:50:37.334Z,67.30
2019-02-06T13:53:05.143Z,66.30
2019-02-06T13:55:32.904Z,66.40
2019-02-06T13:58:00.410Z,65.50
2019-02-06T14:00:33.687Z,65.70
2019-02-06T14:03:01.208Z,66.30
2019-02-06T14:05:30.192Z,66.70
2019-02-06T14:08:00.116Z,66.90
2019-02-06T14:10:28.207Z,67.10
2019-02-06T14:12:55.804Z,67.10
2019-02-06T14:15:26.185Z,67.10
2019-02-06T14:17:53.664Z,66.70
2019-02-06T14:20:21.634Z,66.80
2019-02-06T14:22:56.031Z,66.00
2019-02-06T14:26:02.716Z,66.30
2019-02-06T14:29:10.364Z,66.20
2019-02-06T14:32:03.307Z,65.70
2019-02-06T14:35:23.779Z,66.50
2019-02-06T14:38:29.116Z,64.30
2019-02-06T14:41:41.686Z,60.00
2019-02-06T14:44:38.077Z,59.00
2019-02-06T14:47:27.450Z,60.20
2019-02-06T14:50:45.706Z,58.70
2019-02-06T14:53:54.921Z,58.00
2019-02-06T14:56:49.307Z,58.00
2019-02-06T14:59:27.839Z,56.80
2019-02-06T15:02:19.455Z,57.50
2019-02-06T15:05:11.911Z,57.20
2019-02-06T15:08:05.581Z,57.00
2019-02-06T15:10:55.084Z,57.30
2019-02-06T15:14:07.235Z,57.60
2019-02-06T15:17:11.393Z,58.90
2019-02-06T15:20:22.200Z,59.30
2019-02-06T15:23:35.819Z,59.70
2019-02-06T15:26:55.813Z,58.50
2019-02-06T15:29:42.164Z,58.80
2019-02-06T15:32:33.279Z,59.90
2019-02-06T15:35:38.647Z,60.30
2019-02-06T15:39:12.440Z,60.90
2019-02-06T15:42:27.340Z,61.70
2019-02-06T15:45:33.165Z,64.40
2019-02-06T15:48:34.259Z,65.30
2019-02-06T15:51:46.201Z,65.20
2019-02-06T15:54:55.595Z,65.00
2019-02-06T15:58:17.112Z,64.60
2019-02-06T16:01:18.067Z,65.10
2019-02-06T16:04:45.011Z,65.10
2019-02-06T16:07:48.970Z,64.40
2019-02-06T16:11:01.152Z,64.40
2019-02-06T16:13:59.363Z,64.30
2019-02-06T16:17:01.746Z,65.50
2019-02-06T16:20:04.827Z,65.80
2019-02-06T16:23:01.274Z,66.30
2019-02-06T16:25:52.726Z,67.20
2019-02-06T16:29:02.946Z,67.70
2019-02-06T16:31:55.716Z,68.30
2019-02-06T16:35:04.455Z,68.50
2019-02-06T16:38:29.355Z,68.00
2019-02-06T16:41:53.914Z,67.50
2019-02-06T16:44:45.928Z,67.00
2019-02-06T16:47:45.341Z,66.70
2019-02-06T16:50:33.187Z,66.70
2019-02-06T16:53:41.599Z,67.20
2019-02-06T16:56:36.939Z,67.00
2019-02-06T17:00:04.660Z,69.50
2019-02-06T17:03:02.347Z,69.60
2019-02-06T17:05:52.646Z,70.70
2019-02-06T17:08:53.041Z,71.50
2019-02-06T17:11:37.058Z,71.30
2019-02-06T17:14:49.268Z,71.20
2019-02-06T17:17:56.491Z,71.70
2019-02-06T17:21:12.201Z,71.30
2019-02-06T17:24:14.252Z,73.40
2019-02-06T17:27:13.487Z,74.20
2019-02-06T17:30:11.779Z,73.30
2019-02-06T17:33:17.316Z,73.70
2019-02-06T17:36:42.602Z,73.80
2019-02-06T17:39:41.896Z,73.50
2019-02-06T17:42:37.909Z,73.60
2019-02-06T17:45:47.576Z,74.40
2019-02-06T17:49:05.723Z,74.80
2019-02-06T17:52:01.350Z,75.00
2019-02-06T17:55:13.662Z,74.60
2019-02-06T17:57:41.430Z,74.60
2019-02-06T18:00:15.618Z,74.90
2019-02-06T18:02:43.249Z,75.00
2019-02-06T18:05:10.796Z,75.30
2019-02-06T18:07:38.576Z,75.40
2019-02-06T18:10:10.244Z,75.40
2019-02-06T18:12:38.045Z,76.00
2019-02-06T18:15:06.208Z,75.60
2019-02-06T18:17:33.672Z,75.00
2019-02-06T18:20:01.487Z,74.90
2019-02-06T18:22:29.515Z,74.90
2019-02-06T18:24:57.051Z,75.50
2019-02-06T18:27:24.827Z,76.30
2019-02-06T18:29:52.703Z,76.40
2019-02-06T18:32:20.507Z,76.30
2019-02-06T18:34:48.333Z,76.80
2019-02-06T18:37:15.979Z,76.20
2019-02-06T18:39:43.809Z,76.70
2019-02-06T18:42:11.385Z,77.40
2019-02-06T18:44:40.079Z,76.90
2019-02-06T18:47:07.735Z,77.90
2019-02-06T18:49:35.536Z,77.90
2019-02-06T18:52:04.620Z,78.20
2019-02-06T18:54:32.485Z,78.30
2019-02-06T18:57:00.129Z,78.60
2019-02-06T18:59:27.698Z,78.60
2019-02-06T19:01:55.652Z,78.70
2019-02-06T19:04:23.523Z,78.70
2019-02-06T19:06:52.059Z,79.50
2019-02-06T19:09:19.904Z,79.40
2019-02-06T19:11:47.297Z,79.30
2019-02-06T19:14:15.395Z,79.60
2019-02-06T19:16:43.182Z,79.90
2019-02-06T19:19:10.977Z,80.10
2019-02-06T19:21:38.618Z,80.10
2019-02-06T19:24:06.265Z,80.40
2019-02-06T19:26:34.092Z,80.70
2019-02-06T19:29:03.196Z,80.60
2019-02-06T19:31:30.821Z,80.80
2019-02-06T19:33:58.478Z,81.10
2019-02-06T19:36:26.055Z,81.00
2019-02-06T19:38:53.546Z,80.80
2019-02-06T19:41:21.534Z,80.50
2019-02-06T19:43:49.438Z,80.20
2019-02-06T19:46:16.992Z,80.10
2019-02-06T19:48:44.632Z,80.10
2019-02-06T19:51:12.605Z,80.00
2019-02-06T19:53:40.202Z,80.20
2019-02-06T19:56:08.140Z,80.20
2019-02-06T19:58:36.064Z,80.20
2019-02-06T20:01:03.890Z,80.20
2019-02-06T20:03:32.121Z,80.90
2019-02-06T20:05:59.691Z,80.70
2019-02-06T20:08:27.315Z,81.00
2019-02-06T20:10:55.707Z,81.10
2019-02-06T20:13:23.165Z,81.10
2019-02-06T20:15:51.082Z,81.80
2019-02-06T20:18:20.556Z,81.50
2019-02-06T20:20:48.242Z,81.70
2019-02-06T20:23:15.851Z,81.50
2019-02-06T20:25:43.387Z,81.50
2019-02-06T20:28:11.084Z,81.40
2019-02-06T20:30:38.651Z,81.90
2019-02-06T20:33:06.244Z,81.90
2019-02-06T20:35:34.526Z,81.60
2019-02-06T20:38:02.159Z,81.90
2019-02-06T20:40:31.942Z,82.30
2019-02-06T20:42:59.516Z,82.80
2019-02-06T20:45:27.056Z,83.20
2019-02-06T20:47:54.788Z,83.30
2019-02-06T20:50:24.653Z,83.50
2019-02-06T20:52:52.416Z,83.40
2019-02-06T20:55:20.468Z,83.60
2019-02-06T20:57:48.470Z,83.60
2019-02-06T21:00:24.308Z,83.60
2019-02-06T21:02:52.031Z,83.70
2019-02-06T21:05:19.583Z,84.00
2019-02-06T21:07:47.438Z,84.30
2019-02-06T21:10:18.995Z,84.10
2019-02-06T21:12:46.603Z,84.10
2019-02-06T21:15:14.596Z,84.30
2019-02-06T21:17:43.306Z,84.30
2019-02-06T21:20:12.979Z,84.30
2019-02-06T21:22:40.696Z,84.00
2019-02-06T21:25:09.721Z,83.80
2019-02-06T21:27:37.691Z,83.70
2019-02-06T21:30:10.295Z,83.60
2019-02-06T21:32:38.021Z,83.70
2019-02-06T21:35:06.113Z,83.50
2019-02-06T21:37:35.009Z,83.50
2019-02-06T21:40:03.740Z,83.50
2019-02-06T21:42:31.651Z,83.40
2019-02-06T21:44:59.189Z,83.30
2019-02-06T21:47:26.976Z,83.80
2019-02-06T21:49:54.587Z,83.80
2019-02-06T21:52:22.589Z,83.70
2019-02-06T21:54:50.071Z,83.70
2019-02-06T21:57:17.520Z,83.80
2019-02-06T21:59:45.535Z,84.00
2019-02-06T22:02:13.059Z,83.80
2019-02-06T22:04:40.640Z,83.80
2019-02-06T22:07:10.016Z,83.70
2019-02-06T22:09:38.645Z,83.70
2019-02-06T22:12:06.366Z,84.10
2019-02-06T22:14:34.001Z,84.30
2019-02-06T22:17:01.798Z,84.10
2019-02-06T22:19:29.403Z,84.40
2019-02-06T22:21:56.961Z,84.20
2019-02-06T22:24:24.546Z,84.30
2019-02-06T22:26:52.291Z,84.50
2019-02-06T22:29:21.002Z,84.50
2019-02-06T22:31:48.556Z,84.60
2019-02-06T22:34:16.265Z,84.80
2019-02-06T22:36:44.223Z,84.90
2019-02-06T22:39:12.256Z,85.00
2019-02-06T22:41:39.917Z,85.10
2019-02-06T22:44:07.391Z,85.40
2019-02-06T22:46:34.848Z,85.40
2019-02-06T22:49:02.729Z,85.20
2019-02-06T22:51:30.489Z,85.60
2019-02-06T22:53:58.262Z,85.70
2019-02-06T22:56:26.159Z,85.50
2019-02-06T22:58:53.712Z,85.80
2019-02-06T23:01:31.357Z,85.60
2019-02-06T23:03:59.147Z,85.60
2019-02-06T23:06:26.899Z,85.10
2019-02-06T23:08:55.486Z,84.90
2019-02-06T23:11:23.162Z,85.00
2019-02-06T23:13:50.754Z,85.20
2019-02-06T23:16:18.570Z,85.10
2019-02-06T23:18:46.246Z,85.10
2019-02-06T23:21:13.978Z,85.20
2019-02-06T23:23:41.452Z,85.10
2019-02-06T23:26:09.192Z,84.90
2019-02-06T23:28:36.773Z,85.00
2019-02-06T23:31:04.282Z,84.90
2019-02-06T23:33:32.876Z,85.00
2019-02-06T23:36:00.399Z,84.90
2019-02-06T23:38:28.478Z,84.80
2019-02-06T23:40:56.258Z,84.80
2019-02-06T23:43:23.743Z,84.60
2019-02-06T23:45:51.219Z,84.60
2019-02-06T23:48:18.655Z,84.60
2019-02-06T23:50:46.134Z,84.90
2019-02-06T23:53:13.744Z,84.80
2019-02-06T23:55:41.969Z,85.00
2019-02-06T23:58:09.505Z,85.00
